Time;durP1;ratioP1;P1;durP2;ratioP2;P2;SDS_P1;SDS_P2;PMS_P1;PMS_P2;Temp;Humidity;BMP_temperature;BMP_pressure;BME280_temperature;BME280_humidity;BME280_pressure;Samples;Min_cycle;Max_cycle;Signal;HPM_P1;HPM_P2
2021/04/04 00:00:51;;;;;;;2.72;2.00;;;;;;;22.55;41.12;94682.78;5051471;28;20501;-72
2021/04/04 00:03:16;;;;;;;1.90;1.55;;;;;;;22.54;40.92;94675.84;5050330;28;20059;-72
2021/04/04 00:05:42;;;;;;;2.10;1.70;;;;;;;22.53;40.60;94679.84;5051233;28;20047;-72
2021/04/04 00:08:07;;;;;;;2.38;1.85;;;;;;;22.50;41.21;94676.16;5050427;28;20033;-72
2021/04/04 00:10:33;;;;;;;1.95;1.70;;;;;;;22.47;41.16;94676.44;5051319;28;20487;-72
2021/04/04 00:12:59;;;;;;;2.00;1.50;;;;;;;22.49;41.36;94684.81;5051519;28;20134;-72
2021/04/04 00:15:24;;;;;;;2.00;1.63;;;;;;;22.47;41.33;94703.66;5051283;28;20047;-72
2021/04/04 00:17:49;;;;;;;2.08;1.67;;;;;;;22.47;40.76;94700.94;5051394;28;20406;-72
2021/04/04 00:20:16;;;;;;;2.10;1.60;;;;;;;22.47;40.61;94709.09;5051402;28;20529;-72
2021/04/04 00:22:41;;;;;;;2.13;1.73;;;;;;;22.42;40.95;94702.47;5050163;28;20040;-72
2021/04/04 00:25:09;;;;;;;2.90;2.22;;;;;;;22.41;40.99;94702.97;5051107;28;20037;-72
2021/04/04 00:27:34;;;;;;;2.25;1.80;;;;;;;22.41;41.23;94705.69;5050899;28;20039;-72
2021/04/04 00:30:01;;;;;;;2.10;1.60;;;;;;;22.36;41.31;94682.00;5066520;28;20551;-72
2021/04/04 00:32:26;;;;;;;2.22;1.45;;;;;;;22.37;41.17;94709.94;5050059;28;20033;-72
2021/04/04 00:34:52;;;;;;;2.30;1.70;;;;;;;22.35;41.51;94696.84;5050963;28;20496;-72
2021/04/04 00:37:18;;;;;;;2.10;1.50;;;;;;;22.34;40.89;94706.25;5050749;28;20109;-72
2021/04/04 00:39:43;;;;;;;1.80;1.60;;;;;;;22.33;41.25;94715.66;5050798;28;20627;-71
2021/04/04 00:42:09;;;;;;;1.92;1.52;;;;;;;22.30;41.54;94711.25;5051002;28;20481;-72
2021/04/04 00:44:34;;;;;;;2.58;1.67;;;;;;;22.30;41.41;94715.94;5050811;28;20029;-72
2021/04/04 00:46:59;;;;;;;2.42;1.90;;;;;;;22.29;41.53;94712.47;5050786;28;20036;-72
2021/04/04 00:49:25;;;;;;;2.30;1.75;;;;;;;22.30;41.47;94711.25;5051001;28;20028;-72
2021/04/04 00:51:51;;;;;;;2.10;1.70;;;;;;;22.28;41.52;94721.88;5066198;28;20059;-72
2021/04/04 00:54:16;;;;;;;1.88;1.60;;;;;;;22.25;40.92;94714.75;5049442;28;20468;-72
2021/04/04 00:56:42;;;;;;;1.70;1.42;;;;;;;22.22;41.45;94721.19;5065749;28;20025;-72
2021/04/04 00:59:08;;;;;;;1.95;1.60;;;;;;;22.20;40.75;94722.94;5049342;28;20083;-72
2021/04/04 01:01:33;;;;;;;1.45;1.25;;;;;;;22.24;41.68;94724.16;5048990;28;20083;-72
2021/04/04 01:03:59;;;;;;;1.50;1.40;;;;;;;22.17;41.36;94724.69;5050311;28;20028;-72
2021/04/04 01:06:24;;;;;;;2.03;1.50;;;;;;;22.20;41.54;94722.94;5048930;28;20057;-72
2021/04/04 01:08:50;;;;;;;1.75;1.40;;;;;;;22.21;40.90;94730.63;5049109;28;20033;-71
2021/04/04 01:11:15;;;;;;;1.60;1.40;;;;;;;22.15;41.42;94719.03;5065748;28;20036;-72
2021/04/04 01:14:08;;;;;;;1.65;1.45;;;;;;;22.18;41.17;94726.16;5048570;28;20059;-72
2021/04/04 01:16:34;;;;;;;1.50;1.40;;;;;;;22.18;40.98;94731.59;5049032;28;20035;-72
2021/04/04 01:19:06;;;;;;;1.63;1.45;;;;;;;22.14;41.78;94731.13;5049075;28;20567;-72
2021/04/04 01:21:46;;;;;;;2.00;1.48;;;;;;;22.13;41.59;94729.66;5049914;28;20040;-72
2021/04/04 01:24:33;;;;;;;1.88;1.50;;;;;;;22.14;41.76;94725.69;5048769;28;20027;-72
2021/04/04 01:27:25;;;;;;;2.53;1.60;;;;;;;22.16;41.83;94722.47;5049970;28;20037;-72
2021/04/04 01:29:50;;;;;;;1.75;1.20;;;;;;;22.12;41.20;94722.00;5049453;28;20033;-72
2021/04/04 01:32:16;;;;;;;1.75;1.30;;;;;;;22.11;41.30;94731.41;5049730;28;20040;-72
2021/04/04 01:34:41;;;;;;;1.70;1.60;;;;;;;22.10;41.57;94719.06;5050166;28;20061;-72
2021/04/04 01:37:09;;;;;;;2.25;1.33;;;;;;;22.09;41.65;94723.75;5049910;28;20036;-72
2021/04/04 01:39:55;;;;;;;2.00;1.40;;;;;;;22.07;41.44;94731.69;5064907;28;20060;-72
2021/04/04 01:42:21;;;;;;;1.58;1.38;;;;;;;22.06;41.44;94724.78;5049023;28;20086;-73
2021/04/04 01:44:47;;;;;;;1.60;1.30;;;;;;;22.10;41.16;94724.50;5048151;28;20028;-71
2021/04/04 01:47:12;;;;;;;1.40;1.30;;;;;;;22.06;41.59;94719.34;5065177;28;20171;-72
2021/04/04 01:49:43;;;;;;;1.80;1.23;;;;;;;22.07;41.55;94726.25;5049035;28;20032;-72
2021/04/04 01:52:09;;;;;;;1.67;1.30;;;;;;;22.00;41.29;94721.38;5049237;28;20402;-72
2021/04/04 01:54:35;;;;;;;2.03;1.60;;;;;;;22.05;41.11;94717.84;5048201;28;20024;-72
2021/04/04 01:57:00;;;;;;;1.67;1.40;;;;;;;22.02;41.36;94705.28;5049993;28;20065;-72
2021/04/04 01:59:26;;;;;;;1.52;1.40;;;;;;;22.03;41.63;94714.91;5050253;28;20428;-71
2021/04/04 02:01:51;;;;;;;1.77;1.30;;;;;;;22.01;41.35;94711.22;5065763;28;20033;-72
2021/04/04 02:04:16;;;;;;;2.28;1.33;;;;;;;21.98;41.69;94707.53;5049941;28;20013;-72
2021/04/04 02:06:43;;;;;;;1.85;1.23;;;;;;;22.00;41.21;94715.94;5050573;28;20037;-72
2021/04/04 02:09:09;;;;;;;1.52;1.13;;;;;;;21.98;41.88;94707.53;5049820;28;20025;-72
2021/04/04 02:11:35;;;;;;;1.52;1.23;;;;;;;22.00;41.17;94721.38;5050079;28;20478;-72
2021/04/04 02:14:09;;;;;;;1.63;1.27;;;;;;;21.97;41.83;94706.06;5064535;28;20040;-72
2021/04/04 02:16:36;;;;;;;1.80;1.33;;;;;;;21.96;41.47;94715.47;5048273;28;20031;-72
2021/04/04 02:19:03;;;;;;;1.13;1.00;;;;;;;21.97;41.76;94699.88;5047922;28;20021;-72
2021/04/04 02:21:28;;;;;;;1.25;1.10;;;;;;;21.97;41.13;94699.88;5047491;28;20047;-72
2021/04/04 02:23:54;;;;;;;1.30;1.10;;;;;;;21.97;41.81;94695.19;5046062;28;20052;-72
2021/04/04 02:26:19;;;;;;;1.95;1.50;;;;;;;21.93;41.67;94704.88;5047533;28;20052;-73
2021/04/04 02:28:45;;;;;;;1.65;1.10;;;;;;;21.93;41.95;94704.88;5047652;28;20025;-72
2021/04/04 02:31:12;;;;;;;1.40;1.10;;;;;;;21.92;41.59;94704.13;5049069;28;20029;-72
2021/04/04 02:33:42;;;;;;;1.60;1.23;;;;;;;21.93;41.22;94705.59;5049343;28;20501;-72
2021/04/04 02:36:09;;;;;;;1.10;0.98;;;;;;;21.92;41.92;94698.69;5047869;28;20426;-73
2021/04/04 02:38:37;;;;;;;1.70;1.10;;;;;;;21.91;41.24;94701.19;5048546;28;20052;-72
2021/04/04 02:41:04;;;;;;;1.50;1.35;;;;;;;21.92;41.95;94702.66;5047863;28;20109;-72
2021/04/04 02:43:29;;;;;;;1.70;1.25;;;;;;;21.90;41.44;94699.69;5047667;28;20414;-73
2021/04/04 02:45:56;;;;;;;1.77;1.30;;;;;;;21.88;41.59;94691.31;5063699;28;20060;-72
2021/04/04 02:48:29;;;;;;;1.45;1.20;;;;;;;21.89;41.85;94703.66;5047463;28;20574;-72
2021/04/04 02:50:58;;;;;;;1.58;1.02;;;;;;;21.86;41.99;94693.81;5047330;28;20052;-72
2021/04/04 02:53:23;;;;;;;1.58;1.10;;;;;;;21.88;41.93;94685.88;5047464;28;20107;-72
2021/04/04 02:55:50;;;;;;;1.60;1.23;;;;;;;21.88;41.81;94691.31;5063960;28;20043;-72
2021/04/04 02:58:15;;;;;;;1.27;1.00;;;;;;;21.83;41.62;94694.81;5064108;28;20021;-72
2021/04/04 03:00:41;;;;;;;1.60;1.20;;;;;;;21.83;41.98;94678.50;5038452;28;20505;-72
2021/04/04 03:03:07;;;;;;;1.50;1.20;;;;;;;21.86;41.16;94691.81;5047106;28;20026;-71
2021/04/04 03:05:32;;;;;;;1.63;1.40;;;;;;;21.83;41.41;94689.38;5055810;28;20269;-72
2021/04/04 03:08:00;;;;;;;1.55;1.23;;;;;;;21.80;41.68;94679.53;5018474;28;20029;-71
2021/04/04 03:10:25;;;;;;;1.55;1.30;;;;;;;21.80;41.60;94684.97;5040569;28;20038;-72
2021/04/04 03:12:51;;;;;;;1.45;1.10;;;;;;;21.83;41.68;94689.38;5041385;28;20456;-71
2021/04/04 03:15:16;;;;;;;1.65;1.20;;;;;;;21.82;42.03;94687.91;5056471;28;20564;-71
2021/04/04 03:17:42;;;;;;;1.50;1.08;;;;;;;21.84;41.87;94690.84;5051362;28;20120;-71
2021/04/04 03:20:09;;;;;;;1.50;1.20;;;;;;;21.84;41.91;94679.97;5033807;28;20033;-72
2021/04/04 03:22:36;;;;;;;1.50;1.10;;;;;;;21.78;41.28;94679.28;5040162;28;20067;-71
2021/04/04 03:25:02;;;;;;;1.50;1.30;;;;;;;21.82;41.93;94675.03;5042825;28;20026;-72
2021/04/04 03:27:27;;;;;;;1.60;1.20;;;;;;;21.81;41.96;94680.97;5040124;28;20026;-72
2021/04/04 03:29:52;;;;;;;1.42;1.10;;;;;;;21.78;41.22;94671.88;5062964;28;20098;-72
2021/04/04 03:32:18;;;;;;;1.85;1.08;;;;;;;21.79;41.57;94672.59;5039248;28;20029;-71
2021/04/04 03:34:43;;;;;;;1.73;1.33;;;;;;;21.76;41.76;94673.63;5063960;28;20033;-71
2021/04/04 03:37:09;;;;;;;1.70;1.40;;;;;;;21.76;41.69;94674.34;5039354;28;20021;-72
2021/04/04 03:39:35;;;;;;;1.55;1.30;;;;;;;21.78;41.23;94676.56;5044646;28;20571;-72
2021/04/04 03:42:01;;;;;;;1.38;1.27;;;;;;;21.75;41.86;94666.69;5041152;28;20054;-72
2021/04/04 03:44:27;;;;;;;1.27;1.13;;;;;;;21.74;41.83;94670.69;5062194;28;20418;-72
2021/04/04 03:46:53;;;;;;;1.70;1.42;;;;;;;21.74;41.89;94676.13;5066557;28;20227;-71
2021/04/04 03:49:19;;;;;;;1.52;1.23;;;;;;;21.75;41.57;94672.13;5067008;28;20417;-72
2021/04/04 03:51:44;;;;;;;1.33;1.20;;;;;;;21.75;41.37;94683.00;5049804;28;20501;-72
2021/04/04 03:54:14;;;;;;;1.35;1.15;;;;;;;21.74;41.30;94676.13;5050026;28;20079;-72
2021/04/04 03:56:42;;;;;;;1.45;1.20;;;;;;;21.70;41.66;94681.84;5045273;28;20123;-71
2021/04/04 03:59:09;;;;;;;1.52;1.20;;;;;;;21.71;41.77;94682.56;5050208;28;20708;-72
2021/04/04 04:01:35;;;;;;;1.50;1.38;;;;;;;21.71;41.65;94683.28;5049647;28;20052;-72
2021/04/04 04:04:01;;;;;;;1.58;1.38;;;;;;;21.72;41.58;94684.03;5066376;28;20086;-72
2021/04/04 04:06:26;;;;;;;2.53;1.45;;;;;;;21.69;41.54;94674.19;5053989;28;20136;-72
2021/04/04 04:08:52;;;;;;;1.98;1.40;;;;;;;21.69;42.10;94674.19;5049404;28;20772;-71
2021/04/04 04:11:17;;;;;;;1.50;1.30;;;;;;;21.71;41.69;94688.72;5053136;28;20030;-72
2021/04/04 04:13:43;;;;;;;1.90;1.38;;;;;;;21.72;41.52;94675.88;5063360;28;20029;-71
2021/04/04 04:16:12;;;;;;;1.75;1.30;;;;;;;21.71;41.64;94694.16;5053668;28;20084;-72
2021/04/04 04:18:44;;;;;;;1.53;1.33;;;;;;;21.69;41.56;94668.75;5045465;28;20021;-72
2021/04/04 04:21:14;;;;;;;2.42;1.55;;;;;;;21.69;41.88;94680.34;5033797;28;20033;-72
2021/04/04 04:23:39;;;;;;;1.48;1.33;;;;;;;21.74;41.57;94665.25;5050506;28;20043;-72
2021/04/04 04:26:05;;;;;;;1.65;1.20;;;;;;;21.75;41.58;94666.69;5049765;28;20498;-71
2021/04/04 04:28:30;;;;;;;1.55;1.20;;;;;;;21.75;41.58;94661.28;5043715;28;20414;-72
2021/04/04 04:30:56;;;;;;;1.70;1.17;;;;;;;21.71;42.40;94666.25;5034105;28;20417;-73
2021/04/04 04:33:21;;;;;;;1.58;1.27;;;;;;;21.79;42.31;94678.03;5063875;28;20029;-72
2021/04/04 04:35:48;;;;;;;1.55;1.30;;;;;;;21.76;42.02;94676.34;5047298;28;20033;-72
2021/04/04 04:38:14;;;;;;;2.58;1.30;;;;;;;21.76;42.17;94679.06;5048086;28;20029;-72
2021/04/04 04:40:39;;;;;;;1.80;1.45;;;;;;;21.78;42.18;94668.41;5039839;28;20430;-72
2021/04/04 04:43:06;;;;;;;1.80;1.52;;;;;;;21.81;42.21;94672.84;5056711;28;20486;-72
2021/04/04 04:45:34;;;;;;;9.57;1.80;;;;;;;21.84;42.30;94677.25;5061813;28;20029;-75
2021/04/04 04:48:00;;;;;;;4.32;1.70;;;;;;;21.87;41.76;94662.66;5072448;28;20390;-72
2021/04/04 04:50:25;;;;;;;4.03;1.50;;;;;;;21.96;41.93;94671.97;5056550;28;20033;-71
2021/04/04 04:52:51;;;;;;;6.70;5.60;;;;;;;22.10;42.29;94698.03;5038033;28;20033;-72
2021/04/04 04:55:17;;;;;;;4.85;2.80;;;;;;;22.17;41.54;94681.16;5038559;28;20458;-72
2021/04/04 04:57:43;;;;;;;3.25;2.67;;;;;;;22.24;41.84;94690.75;5040209;28;20066;-74
2021/04/04 05:00:09;;;;;;;7.05;2.55;;;;;;;22.39;41.69;94691.13;5019866;28;20021;-74
2021/04/04 05:02:35;;;;;;;3.92;2.33;;;;;;;22.55;40.73;94693.66;5044443;28;20029;-74
2021/04/04 05:05:02;;;;;;;2.65;2.15;;;;;;;22.71;40.30;94690.03;5056951;28;20041;-73
2021/04/04 05:07:29;;;;;;;4.07;2.22;;;;;;;22.85;40.22;94689.59;5048270;28;20078;-72
2021/04/04 05:09:54;;;;;;;3.63;2.20;;;;;;;23.01;39.73;94692.16;5042245;28;20588;-72
2021/04/04 05:12:20;;;;;;;2.63;2.03;;;;;;;23.14;39.90;94711.31;5047668;28;20029;-72
2021/04/04 05:14:47;;;;;;;2.60;2.08;;;;;;;23.25;39.43;94688.63;5033267;28;20837;-71
2021/04/04 05:17:12;;;;;;;3.20;2.03;;;;;;;23.40;39.10;94697.81;5048038;28;20481;-73
2021/04/04 05:19:38;;;;;;;2.42;1.90;;;;;;;23.49;39.14;94709.06;5034262;28;20029;-72
2021/04/04 05:22:04;;;;;;;3.33;1.90;;;;;;;23.54;38.90;94699.34;5060254;28;20021;-72
2021/04/04 05:24:29;;;;;;;2.58;2.17;;;;;;;23.69;38.83;94705.09;5039280;28;20490;-75
2021/04/04 05:26:55;;;;;;;2.20;1.90;;;;;;;23.79;38.64;94714.38;5033720;28;20092;-73
2021/04/04 05:29:20;;;;;;;4.53;2.40;;;;;;;23.87;38.71;94716.72;5015703;28;20034;-74
2021/04/04 05:31:51;;;;;;;3.25;2.10;;;;;;;23.99;38.19;94723.47;5030601;28;20037;-75
2021/04/04 05:34:27;;;;;;;2.67;1.98;;;;;;;24.14;37.95;94723.72;5037617;28;20087;-74
2021/04/04 05:36:57;;;;;;;2.72;1.80;;;;;;;24.19;38.45;94720.16;5032143;28;20029;-76
2021/04/04 05:39:27;;;;;;;2.45;2.05;;;;;;;24.32;38.75;94711.25;5036723;28;20029;-72
2021/04/04 05:41:54;;;;;;;2.20;1.90;;;;;;;24.37;38.05;94709.19;5039714;28;20029;-72
2021/04/04 05:44:46;;;;;;;2.80;2.05;;;;;;;24.47;37.80;94712.28;5037732;28;20095;-73
2021/04/04 05:47:16;;;;;;;2.65;2.28;;;;;;;24.54;38.08;94717.09;5028447;28;20065;-73
2021/04/04 05:50:05;;;;;;;2.72;2.10;;;;;;;24.66;37.24;94718.38;5036143;28;20044;-74
2021/04/04 05:53:04;;;;;;;2.30;1.90;;;;;;;24.62;37.39;94717.94;5030850;28;20053;-74
2021/04/04 05:55:45;;;;;;;2.88;2.05;;;;;;;24.71;37.89;94720.25;5045992;28;20264;-74
2021/04/04 05:58:11;;;;;;;2.95;2.20;;;;;;;24.81;37.19;94718.59;5040805;28;20033;-73
2021/04/04 06:00:40;;;;;;;2.42;2.10;;;;;;;24.84;37.11;94729.94;5038614;28;20083;-73
2021/04/04 06:03:47;;;;;;;2.05;1.85;;;;;;;24.93;37.34;94715.84;5065615;28;20072;-73
2021/04/04 06:06:49;;;;;;;3.08;2.33;;;;;;;24.92;37.59;94703.44;5016291;28;20087;-73
2021/04/04 06:09:52;;;;;;;2.40;2.20;;;;;;;24.97;37.36;94705.34;5041655;28;20025;-73
2021/04/04 06:12:38;;;;;;;2.42;2.22;;;;;;;25.11;36.63;94709.56;5031548;28;20061;-72
2021/04/04 06:15:21;;;;;;;2.38;2.00;;;;;;;25.11;36.86;94715.03;5021156;28;20052;-72
2021/04/04 06:18:24;;;;;;;2.20;2.00;;;;;;;25.17;37.12;94718.38;5040634;28;20044;-73
2021/04/04 06:21:11;;;;;;;2.17;1.98;;;;;;;25.19;36.36;94721.31;5037304;28;20032;-72
2021/04/04 06:23:48;;;;;;;3.03;2.03;;;;;;;25.25;37.04;94711.00;5045163;28;20025;-74
2021/04/04 06:26:34;;;;;;;3.40;2.20;;;;;;;25.34;36.30;94716.03;5070587;28;20040;-73
2021/04/04 06:29:07;;;;;;;2.40;2.03;;;;;;;25.37;37.07;94725.91;5038901;28;20029;-73
2021/04/04 06:32:02;;;;;;;2.60;2.10;;;;;;;25.44;36.56;94730.72;5036875;28;20413;-73
2021/04/04 06:34:58;;;;;;;3.25;1.98;;;;;;;25.50;37.07;94728.59;5033820;28;20075;-72
2021/04/04 06:37:45;;;;;;;2.25;2.00;;;;;;;25.52;37.06;94737.75;5043478;28;20417;-73
2021/04/04 06:40:15;;;;;;;2.58;2.25;;;;;;;25.48;37.15;94731.13;5040806;28;20433;-73
2021/04/04 06:43:02;;;;;;;2.63;2.00;;;;;;;25.50;37.30;94723.13;5040268;28;20033;-72
2021/04/04 06:45:58;;;;;;;2.90;2.20;;;;;;;25.58;37.29;94718.50;5041666;28;20038;-75
2021/04/04 06:48:48;;;;;;;4.30;2.03;;;;;;;25.62;36.82;94718.88;5036157;28;20029;-74
2021/04/04 06:51:51;;;;;;;4.25;2.10;;;;;;;25.60;37.25;94722.16;5039990;28;20566;-73
2021/04/04 06:54:34;;;;;;;3.78;2.03;;;;;;;25.60;37.30;94726.91;5035199;28;20026;-72
2021/04/04 06:57:18;;;;;;;3.70;1.83;;;;;;;25.63;36.92;94747.72;5041915;28;20037;-72
2021/04/04 06:59:49;;;;;;;3.22;2.33;;;;;;;25.65;37.17;94745.22;5037224;28;20119;-72
2021/04/04 07:02:14;;;;;;;3.92;2.15;;;;;;;25.62;37.08;94740.78;5032955;28;20021;-72
2021/04/04 07:04:45;;;;;;;2.65;1.90;;;;;;;25.63;36.37;94734.03;5083367;28;20079;-72
2021/04/04 07:07:53;;;;;;;2.78;2.15;;;;;;;25.63;36.62;94736.78;5030068;28;20029;-72
2021/04/04 07:10:41;;;;;;;4.55;2.42;;;;;;;25.65;36.89;94735.03;5021439;28;20553;-72
2021/04/04 07:13:38;;;;;;;2.72;2.00;;;;;;;25.64;37.03;94746.47;5033721;28;20128;-72
2021/04/04 07:16:09;;;;;;;4.40;2.30;;;;;;;25.68;36.88;94744.91;5038310;28;20061;-72
2021/04/04 07:18:53;;;;;;;3.53;2.28;;;;;;;25.69;36.26;94751.09;5032786;28;20039;-72
2021/04/04 07:21:43;;;;;;;3.22;2.25;;;;;;;25.73;36.06;94735.81;5036997;28;20033;-72
2021/04/04 07:24:14;;;;;;;3.33;2.10;;;;;;;25.76;36.47;94736.78;5042659;28;20502;-72
2021/04/04 07:27:05;;;;;;;3.00;2.40;;;;;;;25.74;36.10;94736.56;5038739;28;20033;-74
2021/04/04 07:29:49;;;;;;;6.05;2.25;;;;;;;25.70;35.88;94736.16;5037862;28;20578;-71
2021/04/04 07:32:18;;;;;;;4.05;2.45;;;;;;;25.72;36.95;94734.34;5042075;28;20494;-76
2021/04/04 07:34:57;;;;;;;8.00;3.22;;;;;;;25.89;42.04;94743.66;5035476;28;20495;-71
2021/04/04 07:37:50;;;;;;;4.25;2.33;;;;;;;25.74;39.47;94736.56;5057630;28;20032;-71
2021/04/04 07:40:27;;;;;;;4.30;2.35;;;;;;;25.65;39.59;94731.53;5031173;28;20021;-72
2021/04/04 07:43:00;;;;;;;4.55;2.80;;;;;;;25.63;42.05;94736.78;5044302;28;20136;-73
2021/04/04 07:45:29;;;;;;;4.13;2.38;;;;;;;25.47;46.28;94735.13;5040185;28;20048;-72
2021/04/04 07:48:06;;;;;;;5.28;3.17;;;;;;;25.35;46.64;94728.41;5044484;28;20574;-71
2021/04/04 07:50:43;;;;;;;5.90;2.58;;;;;;;25.45;46.13;94732.91;5037103;28;20041;-71
2021/04/04 07:53:23;;;;;;;4.82;2.67;;;;;;;25.31;47.37;94738.97;5043775;28;20025;-71
2021/04/04 07:56:04;;;;;;;4.63;2.72;;;;;;;25.23;47.85;94726.44;5037932;28;20029;-71
2021/04/04 07:58:35;;;;;;;5.55;2.75;;;;;;;25.13;46.56;94734.34;5024546;28;20025;-71
2021/04/04 08:01:02;;;;;;;4.72;2.97;;;;;;;25.13;47.34;94739.09;5051799;28;20044;-72
2021/04/04 08:03:38;;;;;;;5.78;3.30;;;;;;;24.99;49.59;94743.84;5045031;28;20017;-72
2021/04/04 08:06:10;;;;;;;8.13;3.33;;;;;;;24.93;50.68;94737.72;5038288;28;20050;-73
2021/04/04 08:08:41;;;;;;;6.28;3.53;;;;;;;24.95;50.44;94740.66;5044214;28;20043;-71
2021/04/04 08:11:18;;;;;;;4.53;3.10;;;;;;;24.89;48.78;94736.56;5034864;28;20025;-71
2021/04/04 08:14:01;;;;;;;5.53;3.13;;;;;;;24.88;49.40;94735.81;5030402;28;20040;-71
2021/04/04 08:16:42;;;;;;;6.65;3.72;;;;;;;24.86;47.99;94727.41;5033566;28;20029;-72
2021/04/04 08:19:11;;;;;;;4.05;2.78;;;;;;;24.82;45.54;94731.00;5036877;28;20082;-70
2021/04/04 08:21:45;;;;;;;4.93;3.10;;;;;;;24.75;47.85;94737.06;5041833;28;20111;-72
2021/04/04 08:24:25;;;;;;;5.40;2.97;;;;;;;24.88;44.68;94735.06;5045233;28;20025;-72
2021/04/04 08:26:53;;;;;;;3.97;2.70;;;;;;;24.93;42.75;94729.50;5062643;28;20052;-71
2021/04/04 08:29:23;;;;;;;7.28;3.47;;;;;;;24.95;43.23;94724.25;5042144;28;20032;-72
2021/04/04 08:32:04;;;;;;;4.72;2.83;;;;;;;25.02;42.15;94723.66;5057088;28;20033;-71
2021/04/04 08:34:52;;;;;;;5.38;2.83;;;;;;;24.98;42.60;94717.72;5041555;28;20033;-72
2021/04/04 08:37:23;;;;;;;6.07;3.22;;;;;;;24.94;42.46;94733.69;5043127;28;20123;-71
2021/04/04 08:39:52;;;;;;;5.07;2.70;;;;;;;24.98;41.66;94736.88;5038824;28;20025;-71
2021/04/04 08:42:18;;;;;;;5.20;3.20;;;;;;;24.95;40.95;94729.72;5059601;28;20024;-72
2021/04/04 08:44:52;;;;;;;4.05;2.72;;;;;;;25.00;40.59;94715.22;5043403;28;20040;-71
2021/04/04 08:47:27;;;;;;;9.68;4.20;;;;;;;24.98;42.88;94720.47;5043610;28;20021;-71
2021/04/04 08:49:53;;;;;;;6.07;2.95;;;;;;;25.04;41.71;94726.59;5058873;28;20747;-72
2021/04/04 08:52:22;;;;;;;5.68;3.20;;;;;;;25.09;41.31;94728.47;5043872;28;20024;-72
2021/04/04 08:54:49;;;;;;;5.57;3.45;;;;;;;25.10;40.60;94724.47;5042458;28;20501;-72
2021/04/04 08:57:14;;;;;;;6.78;3.33;;;;;;;25.20;41.15;94736.47;5058432;28;20028;-72
2021/04/04 08:59:40;;;;;;;6.82;3.08;;;;;;;25.14;40.97;94724.91;5043330;28;20041;-72
2021/04/04 09:02:06;;;;;;;4.60;2.90;;;;;;;25.11;40.35;94715.03;5040789;28;20033;-71
2021/04/04 09:04:33;;;;;;;5.60;3.28;;;;;;;25.16;40.54;94703.25;5043171;28;20037;-71
2021/04/04 09:07:03;;;;;;;6.57;3.17;;;;;;;25.18;40.59;94708.91;5046152;28;20040;-72
2021/04/04 09:09:31;;;;;;;;;;;;;;;25.10;40.72;94697.16;5043799;28;20499;-71
2021/04/04 09:12:00;;;;;;;4.32;3.00;;;;;;;25.12;40.83;94693.91;5039176;28;19917;-71
2021/04/04 09:14:26;;;;;;;4.07;3.08;;;;;;;25.15;40.43;94699.03;5042879;28;20029;-71
2021/04/04 09:16:55;;;;;;;4.00;3.10;;;;;;;25.12;40.54;94694.63;5037676;28;20021;-71
2021/04/04 09:19:34;;;;;;;4.60;3.13;;;;;;;25.06;40.45;94702.19;5035010;28;20113;-71
2021/04/04 09:22:10;;;;;;;5.07;3.40;;;;;;;25.11;40.80;94698.63;5043507;28;20310;-72
2021/04/04 09:24:58;;;;;;;4.07;2.70;;;;;;;25.19;40.10;94694.00;5042210;28;20498;-72
2021/04/04 09:27:25;;;;;;;5.07;3.13;;;;;;;25.23;39.84;94699.88;5061773;28;20520;-71
2021/04/04 09:29:52;;;;;;;4.93;3.17;;;;;;;25.34;39.43;94688.69;5037901;28;20036;-71
2021/04/04 09:32:44;;;;;;;5.38;3.05;;;;;;;25.47;38.63;94702.31;5045098;28;20021;-72
2021/04/04 09:35:13;;;;;;;4.70;2.80;;;;;;;25.58;38.86;94696.63;5034490;28;20126;-72
2021/04/04 09:37:39;;;;;;;5.57;3.20;;;;;;;25.56;38.95;94699.88;5043878;28;20029;-71
2021/04/04 09:40:05;;;;;;;6.35;3.30;;;;;;;25.69;38.04;94690.91;5047461;28;20496;-71
2021/04/04 09:42:30;;;;;;;5.47;3.22;;;;;;;25.72;38.18;94706.28;5043050;28;20548;-72
2021/04/04 09:45:12;;;;;;;5.10;3.25;;;;;;;25.70;38.55;94692.41;5034270;28;20048;-71
2021/04/04 09:47:37;;;;;;;6.03;2.92;;;;;;;25.72;37.95;94706.28;5045395;28;20407;-70
2021/04/04 09:50:03;;;;;;;5.63;3.25;;;;;;;25.75;38.11;94699.75;5042643;28;20047;-72
2021/04/04 09:52:31;;;;;;;5.75;2.95;;;;;;;25.77;37.91;94702.66;5040938;28;20094;-73
2021/04/04 09:55:43;;;;;;;10.65;4.43;;;;;;;25.79;37.63;94713.81;5067038;28;20041;-71
2021/04/04 09:58:10;;;;;;;9.48;4.00;;;;;;;25.80;37.78;94719.50;5045492;28;20044;-70
2021/04/04 10:00:39;;;;;;;8.60;3.58;;;;;;;25.82;38.12;94711.47;5034382;28;20422;-69
2021/04/04 10:03:12;;;;;;;7.85;3.35;;;;;;;25.81;37.55;94712.75;5044228;28;20040;-72
2021/04/04 10:05:40;;;;;;;7.63;3.72;;;;;;;25.88;37.97;94714.81;5039101;28;20103;-70
2021/04/04 10:08:24;;;;;;;7.45;3.58;;;;;;;25.91;37.47;94702.81;5043830;28;20082;-72
2021/04/04 10:10:53;;;;;;;5.03;3.40;;;;;;;25.86;37.86;94706.41;5037317;28;20124;-72
2021/04/04 10:13:25;;;;;;;7.53;3.38;;;;;;;25.89;37.55;94710.81;5043066;28;20036;-72
2021/04/04 10:15:51;;;;;;;7.20;3.35;;;;;;;25.92;37.70;94709.75;5038409;28;20410;-71
2021/04/04 10:18:18;;;;;;;6.53;3.50;;;;;;;25.91;37.85;94711.03;5031688;28;20036;-71
2021/04/04 10:20:57;;;;;;;6.15;3.70;;;;;;;25.93;37.26;94705.78;5030986;28;20312;-72
2021/04/04 10:23:29;;;;;;;8.60;4.00;;;;;;;25.94;37.27;94712.69;5047129;28;20033;-72
2021/04/04 10:25:56;;;;;;;6.90;3.58;;;;;;;25.97;37.79;94710.91;5036884;28;20490;-72
2021/04/04 10:28:21;;;;;;;5.10;3.55;;;;;;;25.97;37.16;94716.38;5044870;28;20025;-72
2021/04/04 10:30:55;;;;;;;6.70;3.70;;;;;;;25.97;37.17;94722.56;5035598;28;20040;-72
2021/04/04 10:33:25;;;;;;;6.30;3.55;;;;;;;25.98;37.65;94710.38;5045067;28;20032;-72
2021/04/04 10:35:52;;;;;;;7.30;3.30;;;;;;;25.99;37.40;94720.06;5033340;28;20037;-70
2021/04/04 10:38:22;;;;;;;5.97;3.25;;;;;;;25.99;37.53;94709.09;5046213;28;20490;-72
2021/04/04 10:40:57;;;;;;;;;;;;;;;25.98;37.48;94702.16;5032625;28;20521;-72
2021/04/04 10:43:33;;;;;;;6.57;3.47;;;;;;;25.99;37.40;94714.59;5044772;28;21704;-71
2021/04/04 10:46:17;;;;;;;5.88;3.40;;;;;;;26.01;36.68;94712.03;5030100;28;20406;-72
2021/04/04 10:48:44;;;;;;;5.38;3.45;;;;;;;26.08;36.86;94705.88;5060436;28;20045;-72
2021/04/04 10:51:11;;;;;;;8.02;3.92;;;;;;;26.14;36.78;94695.53;5039117;28;20072;-71
2021/04/04 10:53:37;;;;;;;5.82;3.53;;;;;;;26.13;37.28;94705.03;5061197;28;20052;-72
2021/04/04 10:56:04;;;;;;;7.80;3.63;;;;;;;26.18;36.95;94704.16;5036250;28;20491;-71
2021/04/04 10:58:29;;;;;;;8.00;3.22;;;;;;;26.18;36.95;94708.91;5045902;28;20111;-72
2021/04/04 11:00:56;;;;;;;6.00;3.30;;;;;;;26.19;37.11;94704.88;5036044;28;20047;-72
2021/04/04 11:03:22;;;;;;;5.78;3.42;;;;;;;26.15;37.29;94718.19;5044923;28;20043;-71
2021/04/04 11:05:48;;;;;;;5.07;3.35;;;;;;;26.13;37.69;94712.50;5036386;28;20046;-72
2021/04/04 11:08:13;;;;;;;4.68;3.20;;;;;;;26.16;37.36;94714.91;5042702;28;20029;-72
2021/04/04 11:10:39;;;;;;;5.20;3.60;;;;;;;26.18;37.83;94709.63;5037881;28;20021;-72
2021/04/04 11:13:04;;;;;;;5.72;3.40;;;;;;;26.14;37.15;94714.69;5057610;28;20021;-72
2021/04/04 11:15:32;;;;;;;5.00;3.40;;;;;;;26.20;37.53;94726.25;5038245;28;20025;-71
2021/04/04 11:18:05;;;;;;;5.68;3.20;;;;;;;26.24;37.85;94707.50;4977201;28;20061;-70
2021/04/04 11:20:30;;;;;;;7.07;3.85;;;;;;;26.24;37.29;94704.75;5029566;28;20033;-72
2021/04/04 11:22:56;;;;;;;4.93;3.10;;;;;;;26.18;37.43;94719.84;5063420;28;20044;-71
2021/04/04 11:25:27;;;;;;;6.55;3.53;;;;;;;26.20;37.24;94707.09;5032680;28;20033;-72
2021/04/04 11:27:53;;;;;;;5.60;3.03;;;;;;;26.10;37.39;94708.84;5048776;28;20021;-72
2021/04/04 11:30:27;;;;;;;3.95;2.97;;;;;;;26.18;37.63;94698.69;5051330;28;20035;-71
2021/04/04 11:33:18;;;;;;;5.55;3.55;;;;;;;26.21;37.11;94703.09;5048519;28;20025;-72
2021/04/04 11:36:02;;;;;;;4.30;3.45;;;;;;;26.17;31.88;94678.03;5034445;28;20235;-72
2021/04/04 11:38:28;;;;;;;7.82;3.92;;;;;;;25.82;34.66;94688.88;5046864;28;20418;-71
2021/04/04 11:41:31;;;;;;;5.45;3.20;;;;;;;25.93;36.58;94688.59;5031238;28;20463;-72
2021/04/04 11:44:17;;;;;;;4.82;3.40;;;;;;;25.99;36.70;94686.47;5043615;28;20025;-72
2021/04/04 11:46:44;;;;;;;4.68;3.30;;;;;;;26.10;36.50;94672.50;5035565;28;20025;-72
2021/04/04 11:49:28;;;;;;;5.38;3.17;;;;;;;26.12;36.76;94673.44;5046813;28;20489;-72
2021/04/04 11:51:54;;;;;;;5.38;3.33;;;;;;;26.19;36.77;94672.78;5051286;28;20037;-72
2021/04/04 11:54:45;;;;;;;7.70;3.53;;;;;;;26.17;36.35;94666.38;5043854;28;20033;-72